createdAt,value
2023-04-03T00:00:00.765Z,89.27
2023-04-03T00:01:00.771Z,89.27
2023-04-03T00:02:00.757Z,89.48
2023-04-03T00:03:00.720Z,89.58
2023-04-03T00:04:00.758Z,89.89
2023-04-03T00:05:00.737Z,89.89
2023-04-03T00:06:00.720Z,89.48
2023-04-03T00:07:00.665Z,89.89
2023-04-03T00:08:00.675Z,89.48
2023-04-03T00:09:00.654Z,88.33
2023-04-03T00:10:00.638Z,88.43
2023-04-03T00:11:00.661Z,88.75
2023-04-03T00:12:00.602Z,89.02
2023-04-03T00:13:00.602Z,88.50
2023-04-03T00:14:00.585Z,88.19
2023-04-03T00:15:00.681Z,88.09
2023-04-03T00:16:00.569Z,88.29
2023-04-03T00:17:00.606Z,88.40
2023-04-03T00:18:00.584Z,87.88
2023-04-03T00:19:00.564Z,88.09
2023-04-03T00:20:00.521Z,88.19
2023-04-03T00:21:00.530Z,88.29
2023-04-03T00:22:00.499Z,88.43
2023-04-03T00:23:00.497Z,88.33
2023-04-03T00:24:00.526Z,88.33
2023-04-03T00:25:00.478Z,88.54
2023-04-03T00:26:00.441Z,88.12
2023-04-03T00:27:00.472Z,87.71
2023-04-03T00:28:00.454Z,87.92
2023-04-03T00:29:00.437Z,88.12
2023-04-03T00:30:00.414Z,88.48
2023-04-03T00:31:00.420Z,88.58
2023-04-03T00:32:00.387Z,88.68
2023-04-03T00:33:00.450Z,88.89
2023-04-03T00:34:00.378Z,88.79
2023-04-03T00:35:00.349Z,88.68
2023-04-03T00:36:00.533Z,88.27
2023-04-03T00:37:00.444Z,88.17
2023-04-03T00:38:00.313Z,88.37
2023-04-03T00:39:00.374Z,88.58
2023-04-03T00:40:00.297Z,88.79
2023-04-03T00:41:00.323Z,89.00
2023-04-03T00:42:00.260Z,88.37
2023-04-03T00:43:00.289Z,88.37
2023-04-03T00:44:00.296Z,88.52
2023-04-03T00:45:00.242Z,88.83
2023-04-03T00:46:00.282Z,88.93
2023-04-03T00:47:00.219Z,89.14
2023-04-03T00:48:00.261Z,89.35
2023-04-03T00:49:00.217Z,89.45
2023-04-03T00:50:00.224Z,89.66
2023-04-03T00:51:00.193Z,89.98
2023-04-03T00:52:00.160Z,90.29
2023-04-03T00:53:00.193Z,90.19
2023-04-03T00:54:00.176Z,90.50
2023-04-03T00:55:00.154Z,90.60
2023-04-03T00:56:00.132Z,90.60
2023-04-03T00:57:00.149Z,90.70
2023-04-03T00:58:00.112Z,90.70
2023-04-03T00:59:00.128Z,90.54
2023-04-03T01:00:00.198Z,90.44
2023-04-03T01:01:00.081Z,90.44
2023-04-03T01:02:00.344Z,90.54
2023-04-03T01:03:00.069Z,90.22
2023-04-03T01:04:00.100Z,90.01
2023-04-03T01:05:00.023Z,90.01
2023-04-03T01:06:00.592Z,90.01
2023-04-03T01:07:00.018Z,90.12
2023-04-03T01:08:00.708Z,90.22
2023-04-03T01:09:00.003Z,90.22
2023-04-03T01:10:00.052Z,90.22
2023-04-03T01:10:59.955Z,90.22
2023-04-03T01:12:00.012Z,90.44
2023-04-03T01:12:59.928Z,90.33
2023-04-03T01:13:59.984Z,90.64
2023-04-03T01:14:59.949Z,90.85
2023-04-03T01:15:59.963Z,90.64
2023-04-03T01:16:59.898Z,90.54
2023-04-03T01:17:59.934Z,90.44
2023-04-03T01:18:59.876Z,90.54
2023-04-03T01:19:59.851Z,90.54
2023-04-03T01:20:59.878Z,90.54
2023-04-03T01:21:59.832Z,90.68
2023-04-03T01:22:59.839Z,90.68
2023-04-03T01:23:59.809Z,90.89
2023-04-03T01:24:59.863Z,91.10
2023-04-03T01:25:59.833Z,91.20
2023-04-03T01:26:59.781Z,91.31
2023-04-03T01:27:59.825Z,91.10
2023-04-03T01:28:59.780Z,91.00
2023-04-03T01:29:59.759Z,91.00
2023-04-03T01:30:59.748Z,91.00
2023-04-03T01:31:59.721Z,91.10
2023-04-03T01:32:59.751Z,90.89
2023-04-03T01:33:59.698Z,90.89
2023-04-03T01:34:59.734Z,91.00
2023-04-03T01:35:59.701Z,91.04
2023-04-03T01:36:59.727Z,91.14
2023-04-03T01:37:59.671Z,91.25
2023-04-03T01:38:59.644Z,91.14
2023-04-03T01:39:59.631Z,91.46
2023-04-03T01:40:59.621Z,91.56
2023-04-03T01:41:59.628Z,91.66
2023-04-03T01:42:59.590Z,91.66
2023-04-03T01:43:59.574Z,91.46
2023-04-03T01:44:59.567Z,91.66
2023-04-03T01:45:59.576Z,91.77
2023-04-03T01:46:59.605Z,91.87
2023-04-03T01:47:59.575Z,92.08
2023-04-03T01:48:59.529Z,92.18
2023-04-03T01:49:59.516Z,92.40
2023-04-03T01:50:59.510Z,92.71
2023-04-03T01:51:59.509Z,92.75
2023-04-03T01:52:59.521Z,92.75
2023-04-03T01:53:59.477Z,92.65
2023-04-03T01:54:59.488Z,92.33
2023-04-03T01:55:59.449Z,92.44
2023-04-03T01:56:59.527Z,92.44
2023-04-03T01:57:59.458Z,92.44
2023-04-03T01:58:59.441Z,92.54
2023-04-03T01:59:59.650Z,92.65
2023-04-03T02:00:59.430Z,92.65
2023-04-03T02:01:59.397Z,92.75
2023-04-03T02:02:59.409Z,92.85
2023-04-03T02:03:59.537Z,92.75
2023-04-03T02:04:59.358Z,92.65
2023-04-03T02:05:59.367Z,92.65
2023-04-03T02:06:59.357Z,92.44
2023-04-03T02:07:59.329Z,92.44
2023-04-03T02:08:59.346Z,92.65
2023-04-03T02:09:59.306Z,92.75
2023-04-03T02:10:59.335Z,92.75
2023-04-03T02:11:59.294Z,92.65
2023-04-03T02:12:59.287Z,92.69
2023-04-03T02:13:59.508Z,92.79
2023-04-03T02:14:59.302Z,92.69
2023-04-03T02:15:59.245Z,92.69
2023-04-03T02:16:59.295Z,92.90
2023-04-03T02:17:59.243Z,93.00
2023-04-03T02:18:59.219Z,92.90
2023-04-03T02:19:59.213Z,93.10
2023-04-03T02:20:59.222Z,93.31
2023-04-03T02:21:59.170Z,93.21
2023-04-03T02:22:59.161Z,93.00
2023-04-03T02:23:59.143Z,93.00
2023-04-03T02:24:59.188Z,93.00
2023-04-03T02:25:59.270Z,93.31
2023-04-03T02:26:59.110Z,93.31
2023-04-03T02:27:59.101Z,93.31
2023-04-03T02:28:59.093Z,93.63
2023-04-03T02:29:59.085Z,93.63
2023-04-03T02:30:59.295Z,93.52
2023-04-03T02:31:59.951Z,93.46
2023-04-03T02:32:59.100Z,93.35
2023-04-03T02:33:59.033Z,93.25
2023-04-03T02:34:59.021Z,93.35
2023-04-03T02:35:59.060Z,93.46
2023-04-03T02:36:59.005Z,93.57
2023-04-03T02:37:58.979Z,93.67
2023-04-03T02:38:58.991Z,93.67
2023-04-03T02:39:58.972Z,93.67
2023-04-03T02:40:58.981Z,93.77
2023-04-03T02:41:58.959Z,93.77
2023-04-03T02:42:58.925Z,93.77
2023-04-03T02:43:58.943Z,94.19
2023-04-03T02:45:00.544Z,94.29
2023-04-03T02:45:58.962Z,94.40
2023-04-03T02:46:58.927Z,94.34
2023-04-03T02:47:58.942Z,94.55
2023-04-03T02:48:58.887Z,94.65
2023-04-03T02:49:58.850Z,94.65
2023-04-03T02:50:58.850Z,94.65
2023-04-03T02:51:58.855Z,94.44
2023-04-03T02:52:58.846Z,94.34
2023-04-03T02:53:58.884Z,94.44
2023-04-03T02:54:58.804Z,94.55
2023-04-03T02:55:58.786Z,94.65
2023-04-03T02:56:58.796Z,94.86
2023-04-03T02:57:58.792Z,94.86
2023-04-03T02:58:58.760Z,94.86
2023-04-03T02:59:58.731Z,94.90
2023-04-03T03:00:58.749Z,94.80
2023-04-03T03:01:58.747Z,94.90
2023-04-03T03:02:58.779Z,94.90
2023-04-03T03:03:58.733Z,94.90
2023-04-03T03:04:58.771Z,94.90
2023-04-03T03:05:58.686Z,95.01
2023-04-03T03:06:58.841Z,95.21
2023-04-03T03:07:58.670Z,95.43
2023-04-03T03:08:58.836Z,95.53
2023-04-03T03:09:58.637Z,95.32
2023-04-03T03:10:58.633Z,95.11
2023-04-03T03:11:58.623Z,95.11
2023-04-03T03:12:58.613Z,95.11
2023-04-03T03:13:58.588Z,95.11
2023-04-03T03:14:58.778Z,95.21
2023-04-03T03:15:58.581Z,95.26
2023-04-03T03:16:58.573Z,95.26
2023-04-03T03:17:58.578Z,95.26
2023-04-03T03:18:59.113Z,95.26
2023-04-03T03:19:58.549Z,95.37
2023-04-03T03:20:58.511Z,95.47
2023-04-03T03:21:58.500Z,95.47
2023-04-03T03:22:58.490Z,95.47
2023-04-03T03:23:58.479Z,95.68
2023-04-03T03:24:58.475Z,95.68
2023-04-03T03:25:58.469Z,95.68
2023-04-03T03:26:58.460Z,95.78
2023-04-03T03:27:58.446Z,95.99
2023-04-03T03:28:58.431Z,95.89
2023-04-03T03:29:58.420Z,95.78
2023-04-03T03:30:58.441Z,95.68
2023-04-03T03:31:58.391Z,95.57
2023-04-03T03:32:58.389Z,95.78
2023-04-03T03:33:58.358Z,95.57
2023-04-03T03:34:58.401Z,95.57
2023-04-03T03:35:58.376Z,95.57
2023-04-03T03:36:58.330Z,95.57
2023-04-03T03:37:58.315Z,95.57
2023-04-03T03:38:58.319Z,95.68
2023-04-03T03:39:58.335Z,95.78
2023-04-03T03:40:58.304Z,95.72
2023-04-03T03:41:58.264Z,95.62
2023-04-03T03:42:58.291Z,95.51
2023-04-03T03:43:58.260Z,95.41
2023-04-03T03:44:58.264Z,95.51
2023-04-03T03:45:58.256Z,95.51
2023-04-03T03:46:58.278Z,95.62
2023-04-03T03:47:58.219Z,95.51
2023-04-03T03:48:58.227Z,95.41
2023-04-03T03:49:58.233Z,95.41
2023-04-03T03:50:58.214Z,95.51
2023-04-03T03:51:58.190Z,95.62
2023-04-03T03:52:58.162Z,95.62
2023-04-03T03:53:58.138Z,95.72
2023-04-03T03:54:58.152Z,95.72
2023-04-03T03:55:58.147Z,95.83
2023-04-03T03:56:58.126Z,95.83
2023-04-03T03:57:58.104Z,95.72
2023-04-03T03:58:58.110Z,95.83
2023-04-03T03:59:58.140Z,95.87
2023-04-03T04:00:58.093Z,95.87
2023-04-03T04:01:58.120Z,95.98
2023-04-03T04:02:59.334Z,95.98
2023-04-03T04:03:58.152Z,96.08
2023-04-03T04:04:58.034Z,96.19
2023-04-03T04:05:58.021Z,96.19
2023-04-03T04:06:58.014Z,96.29
2023-04-03T04:07:57.985Z,96.39
2023-04-03T04:08:57.998Z,96.39
2023-04-03T04:09:57.990Z,96.39
2023-04-03T04:10:57.961Z,96.61
2023-04-03T04:11:57.946Z,96.71
2023-04-03T04:12:58.744Z,96.71
2023-04-03T04:13:57.925Z,96.71
2023-04-03T04:14:58.046Z,96.81
2023-04-03T04:15:57.917Z,96.86
2023-04-03T04:16:57.970Z,96.96
2023-04-03T04:17:57.993Z,96.96
2023-04-03T04:18:57.891Z,96.96
2023-04-03T04:19:57.850Z,96.92
2023-04-03T04:20:57.851Z,96.96
2023-04-03T04:21:57.845Z,96.96
2023-04-03T04:22:57.836Z,96.96
2023-04-03T04:23:57.816Z,96.96
2023-04-03T04:24:57.828Z,96.96
2023-04-03T04:25:57.797Z,96.96
2023-04-03T04:26:57.787Z,96.96
2023-04-03T04:27:57.793Z,96.96
2023-04-03T04:28:57.768Z,97.06
2023-04-03T04:29:59.238Z,97.17
2023-04-03T04:30:57.754Z,97.17
2023-04-03T04:31:57.748Z,97.28
2023-04-03T04:32:57.774Z,97.38
2023-04-03T04:33:57.701Z,97.38
2023-04-03T04:34:58.001Z,97.49
2023-04-03T04:35:57.747Z,97.49
2023-04-03T04:36:57.791Z,97.49
2023-04-03T04:37:57.673Z,97.38
2023-04-03T04:38:57.652Z,97.28
2023-04-03T04:39:57.675Z,97.28
2023-04-03T04:40:57.623Z,97.17
2023-04-03T04:41:57.610Z,97.17
2023-04-03T04:42:57.595Z,97.28
2023-04-03T04:43:57.605Z,97.28
2023-04-03T04:44:57.686Z,97.38
2023-04-03T04:45:57.670Z,97.49
2023-04-03T04:46:57.579Z,97.59
2023-04-03T04:47:57.613Z,97.59
2023-04-03T04:48:57.521Z,97.38
2023-04-03T04:49:57.583Z,97.28
2023-04-03T04:50:57.509Z,97.28
2023-04-03T04:51:57.515Z,97.28
2023-04-03T04:52:57.526Z,97.28
2023-04-03T04:53:57.482Z,97.38
2023-04-03T04:54:57.615Z,97.38
2023-04-03T04:55:57.465Z,97.38
2023-04-03T04:56:57.458Z,97.28
2023-04-03T04:57:57.433Z,97.28
2023-04-03T04:58:57.427Z,97.17
2023-04-03T04:59:57.436Z,97.06
2023-04-03T05:00:57.406Z,97.06
2023-04-03T05:01:57.451Z,96.96
2023-04-03T05:02:57.416Z,97.06
2023-04-03T05:03:57.370Z,97.17
2023-04-03T05:04:57.423Z,97.28
2023-04-03T05:05:57.357Z,97.28
2023-04-03T05:06:57.338Z,97.38
2023-04-03T05:07:57.351Z,97.38
2023-04-03T05:08:57.340Z,97.49
2023-04-03T05:09:57.304Z,97.49
2023-04-03T05:10:57.287Z,97.49
2023-04-03T05:11:57.279Z,97.59
2023-04-03T05:12:57.309Z,97.59
2023-04-03T05:13:57.283Z,97.49
2023-04-03T05:14:57.249Z,97.49
2023-04-03T05:15:57.275Z,97.49
2023-04-03T05:16:57.233Z,97.49
2023-04-03T05:17:57.243Z,97.49
2023-04-03T05:18:57.212Z,97.38
2023-04-03T05:19:57.211Z,97.38
2023-04-03T05:20:57.190Z,97.38
2023-04-03T05:21:57.182Z,97.38
2023-04-03T05:22:57.162Z,97.38
2023-04-03T05:23:57.651Z,97.38
2023-04-03T05:24:57.199Z,97.38
2023-04-03T05:25:57.154Z,97.38
2023-04-03T05:26:57.118Z,97.38
2023-04-03T05:27:57.112Z,97.28
2023-04-03T05:28:57.122Z,97.38
2023-04-03T05:29:57.120Z,97.49
2023-04-03T05:30:57.074Z,97.28
2023-04-03T05:31:57.118Z,97.28
2023-04-03T05:32:57.099Z,97.28
2023-04-03T05:33:57.107Z,97.38
2023-04-03T05:34:57.979Z,97.28
2023-04-03T05:35:57.045Z,97.28
2023-04-03T05:36:57.017Z,97.13
2023-04-03T05:37:57.003Z,97.13
2023-04-03T05:38:56.975Z,97.02
2023-04-03T05:39:57.002Z,97.23
2023-04-03T05:40:57.007Z,97.23
2023-04-03T05:41:56.989Z,97.23
2023-04-03T05:42:56.935Z,97.13
2023-04-03T05:43:56.960Z,97.02
2023-04-03T05:44:56.925Z,96.92
2023-04-03T05:45:56.972Z,96.92
2023-04-03T05:46:56.903Z,96.92
2023-04-03T05:47:56.962Z,96.92
2023-04-03T05:48:56.899Z,96.81
2023-04-03T05:49:56.872Z,96.81
2023-04-03T05:50:57.256Z,96.71
2023-04-03T05:51:56.887Z,96.71
2023-04-03T05:52:56.842Z,96.50
2023-04-03T05:53:56.870Z,96.50
2023-04-03T05:54:56.837Z,96.61
2023-04-03T05:55:56.843Z,96.71
2023-04-03T05:56:56.902Z,96.61
2023-04-03T05:57:56.818Z,96.71
2023-04-03T05:58:56.759Z,96.71
2023-04-03T05:59:56.780Z,96.61
2023-04-03T06:00:56.769Z,96.39
2023-04-03T06:01:56.754Z,96.39
2023-04-03T06:02:56.783Z,96.39
2023-04-03T06:03:56.903Z,96.39
2023-04-03T06:04:56.805Z,96.29
2023-04-03T06:05:56.709Z,96.29
2023-04-03T06:06:56.748Z,96.29
2023-04-03T06:07:56.687Z,96.29
2023-04-03T06:08:56.680Z,96.14
2023-04-03T06:09:56.654Z,96.04
2023-04-03T06:10:56.657Z,96.14
2023-04-03T06:11:56.639Z,96.25
2023-04-03T06:12:56.627Z,96.35
2023-04-03T06:13:56.652Z,96.25
2023-04-03T06:14:56.583Z,96.14
2023-04-03T06:15:56.604Z,96.04
2023-04-03T06:16:56.625Z,95.93
2023-04-03T06:17:56.663Z,95.93
2023-04-03T06:18:56.556Z,95.99
2023-04-03T06:19:56.580Z,96.10
2023-04-03T06:20:56.527Z,95.89
2023-04-03T06:21:56.544Z,95.68
2023-04-03T06:22:56.503Z,95.68
2023-04-03T06:23:56.768Z,95.68
2023-04-03T06:24:56.511Z,95.57
2023-04-03T06:25:56.505Z,95.37
2023-04-03T06:26:56.448Z,95.21
2023-04-03T06:27:56.464Z,95.01
2023-04-03T06:28:56.432Z,94.90
2023-04-03T06:29:56.419Z,94.80
2023-04-03T06:30:56.454Z,94.70
2023-04-03T06:31:56.440Z,94.49
2023-04-03T06:32:56.446Z,94.70
2023-04-03T06:33:56.411Z,94.90
2023-04-03T06:34:56.388Z,94.70
2023-04-03T06:35:56.435Z,94.59
2023-04-03T06:36:56.375Z,94.44
2023-04-03T06:37:56.366Z,94.44
2023-04-03T06:38:56.330Z,94.13
2023-04-03T06:39:56.367Z,93.82
2023-04-03T06:40:56.311Z,93.82
2023-04-03T06:41:56.304Z,93.82
2023-04-03T06:42:56.284Z,93.92
2023-04-03T06:43:56.276Z,93.98
2023-04-03T06:44:56.257Z,93.88
2023-04-03T06:45:56.331Z,93.67
2023-04-03T06:46:56.242Z,93.04
2023-04-03T06:47:56.273Z,93.04
2023-04-03T06:48:56.211Z,93.25
2023-04-03T06:49:56.242Z,93.04
2023-04-03T06:50:56.182Z,92.83
2023-04-03T06:51:56.199Z,92.63
2023-04-03T06:52:56.203Z,92.73
2023-04-03T06:53:56.152Z,92.69
2023-04-03T06:54:56.127Z,92.27
2023-04-03T06:55:56.160Z,91.75
2023-04-03T06:56:56.133Z,91.43
2023-04-03T06:57:56.165Z,91.64
2023-04-03T06:58:56.133Z,91.85
2023-04-03T06:59:56.132Z,91.54
2023-04-03T07:00:56.115Z,91.43
2023-04-03T07:01:56.142Z,91.54
2023-04-03T07:02:56.105Z,91.60
2023-04-03T07:03:56.068Z,91.50
2023-04-03T07:04:56.164Z,91.60
2023-04-03T07:05:56.068Z,91.39
2023-04-03T07:06:55.999Z,91.18
2023-04-03T07:07:56.035Z,91.08
2023-04-03T07:08:56.004Z,90.45
2023-04-03T07:09:55.991Z,90.03
2023-04-03T07:10:56.012Z,90.41
2023-04-03T07:11:55.979Z,90.52
2023-04-03T07:12:55.939Z,90.31
2023-04-03T07:13:55.996Z,89.68
2023-04-03T07:14:55.918Z,88.81
2023-04-03T07:15:55.976Z,88.70
2023-04-03T07:16:55.916Z,88.91
2023-04-03T07:17:55.968Z,89.01
2023-04-03T07:18:55.893Z,89.22
2023-04-03T07:19:55.879Z,88.18
2023-04-03T07:20:55.849Z,88.08
2023-04-03T07:21:55.870Z,88.18
2023-04-03T07:22:55.858Z,88.45
2023-04-03T07:23:55.838Z,88.98
2023-04-03T07:24:55.832Z,88.35
2023-04-03T07:25:55.803Z,88.04
2023-04-03T07:26:55.800Z,87.83
2023-04-03T07:27:55.843Z,87.41
2023-04-03T07:28:55.780Z,87.48
2023-04-03T07:29:56.625Z,87.37
2023-04-03T07:30:55.771Z,86.85
2023-04-03T07:31:55.809Z,86.12
2023-04-03T07:32:55.757Z,85.60
2023-04-03T07:33:55.721Z,85.29
2023-04-03T07:34:55.691Z,85.39
2023-04-03T07:35:55.706Z,85.46
2023-04-03T07:36:55.676Z,85.35
2023-04-03T07:37:55.710Z,85.35
2023-04-03T07:38:55.679Z,84.94
2023-04-03T07:39:55.686Z,84.52
2023-04-03T07:40:55.697Z,84.73
2023-04-03T07:41:55.656Z,83.80
2023-04-03T07:42:55.616Z,83.27
2023-04-03T07:43:55.607Z,83.23
2023-04-03T07:44:55.576Z,83.86
2023-04-03T07:45:55.643Z,83.96
2023-04-03T07:46:55.602Z,83.54
2023-04-03T07:47:55.622Z,82.92
2023-04-03T07:48:56.697Z,81.95
2023-04-03T07:49:55.558Z,81.32
2023-04-03T07:50:55.520Z,81.32
2023-04-03T07:51:55.522Z,81.01
2023-04-03T07:52:55.535Z,80.70
2023-04-03T07:53:55.499Z,79.76
2023-04-03T07:54:55.467Z,80.08
2023-04-03T07:55:55.586Z,80.35
2023-04-03T07:56:55.472Z,80.66
2023-04-03T07:57:55.445Z,80.46
2023-04-03T07:58:55.484Z,80.98
2023-04-03T07:59:55.458Z,81.04
2023-04-03T08:00:55.418Z,80.21
2023-04-03T08:01:55.422Z,79.58
2023-04-03T08:02:55.511Z,79.69
2023-04-03T08:03:55.543Z,78.65
2023-04-03T08:04:55.465Z,77.20
2023-04-03T08:05:55.427Z,77.58
2023-04-03T08:06:55.347Z,78.20
2023-04-03T08:07:55.461Z,78.61
2023-04-03T08:08:55.317Z,78.51
2023-04-03T08:09:55.341Z,78.51
2023-04-03T08:10:55.308Z,77.75
2023-04-03T08:11:55.299Z,76.71
2023-04-03T08:12:55.291Z,76.09
2023-04-03T08:13:55.289Z,75.05
2023-04-03T08:14:55.271Z,75.26
2023-04-03T08:15:55.260Z,75.98
2023-04-03T08:16:55.297Z,76.16
2023-04-03T08:17:55.271Z,75.85
2023-04-03T08:18:55.213Z,75.43
2023-04-03T08:19:55.237Z,76.37
2023-04-03T08:20:55.170Z,75.02
2023-04-03T08:21:55.191Z,75.64
2023-04-03T08:22:55.300Z,76.12
2023-04-03T08:23:55.177Z,76.23
2023-04-03T08:24:59.316Z,76.54
2023-04-03T08:25:55.198Z,74.88
2023-04-03T08:26:55.113Z,74.95
2023-04-03T08:27:55.189Z,72.46
2023-04-03T08:28:55.084Z,72.36
2023-04-03T08:29:55.084Z,72.74
2023-04-03T08:30:55.143Z,71.59
2023-04-03T08:31:55.093Z,73.01
2023-04-03T08:32:55.168Z,71.04
2023-04-03T08:33:55.037Z,70.60
2023-04-03T08:34:55.031Z,73.60
2023-04-03T08:35:55.050Z,72.12
2023-04-03T08:36:54.990Z,70.43
2023-04-03T08:37:55.046Z,68.57
2023-04-03T08:38:54.970Z,68.85
2023-04-03T08:39:54.991Z,68.74
2023-04-03T08:40:54.955Z,66.88
2023-04-03T08:41:54.957Z,67.82
2023-04-03T08:42:54.966Z,67.47
2023-04-03T08:43:54.951Z,68.06
2023-04-03T08:44:54.930Z,67.30
2023-04-03T08:45:54.896Z,65.55
2023-04-03T08:46:54.896Z,66.24
2023-04-03T08:47:56.437Z,66.66
2023-04-03T08:48:54.900Z,65.31
2023-04-03T08:49:54.868Z,65.62
2023-04-03T08:50:54.839Z,67.55
2023-04-03T08:51:54.828Z,64.64
2023-04-03T08:52:54.889Z,63.81
2023-04-03T08:53:54.941Z,62.85
2023-04-03T08:54:54.805Z,61.65
2023-04-03T08:55:54.784Z,61.75
2023-04-03T08:56:54.831Z,63.40
2023-04-03T08:57:54.761Z,65.02
2023-04-03T08:58:54.788Z,63.96
2023-04-03T08:59:54.796Z,62.49
2023-04-03T09:00:54.727Z,61.66
2023-04-03T09:01:54.758Z,61.15
2023-04-03T09:02:54.764Z,60.40
2023-04-03T09:03:54.743Z,60.71
2023-04-03T09:04:54.699Z,61.30
2023-04-03T09:05:54.678Z,60.06
2023-04-03T09:06:54.667Z,58.52
2023-04-03T09:07:54.658Z,56.57
2023-04-03T09:08:54.674Z,57.08
2023-04-03T09:09:54.656Z,57.08
2023-04-03T09:10:54.647Z,58.52
2023-04-03T09:11:54.617Z,58.52
2023-04-03T09:12:54.614Z,60.55
2023-04-03T09:13:54.577Z,58.39
2023-04-03T09:14:54.572Z,58.06
2023-04-03T09:15:54.622Z,56.72
2023-04-03T09:16:54.593Z,57.75
2023-04-03T09:17:54.592Z,56.95
2023-04-03T09:18:54.541Z,58.26
2023-04-03T09:19:54.522Z,54.87
2023-04-03T09:20:54.527Z,55.36
2023-04-03T09:21:54.499Z,54.33
2023-04-03T09:22:54.479Z,54.95
2023-04-03T09:23:54.490Z,55.15
2023-04-03T09:24:54.477Z,55.98
2023-04-03T09:25:54.437Z,54.64
2023-04-03T09:26:54.461Z,55.66
2023-04-03T09:27:54.453Z,55.66
2023-04-03T09:28:54.431Z,54.74
2023-04-03T09:29:54.419Z,53.81
2023-04-03T09:30:54.387Z,55.36
2023-04-03T09:31:54.393Z,55.66
2023-04-03T09:32:54.969Z,55.69
2023-04-03T09:33:54.383Z,54.46
2023-04-03T09:34:54.364Z,56.31
2023-04-03T09:35:54.432Z,55.49
2023-04-03T09:36:54.324Z,55.05
2023-04-03T09:37:54.311Z,54.43
2023-04-03T09:38:54.354Z,55.57
2023-04-03T09:39:54.328Z,55.85
2023-04-03T09:40:54.325Z,54.28
2023-04-03T09:41:54.272Z,54.25
2023-04-03T09:43:00.778Z,52.28
2023-04-03T09:43:55.239Z,52.47
2023-04-03T09:44:54.229Z,53.36
2023-04-03T09:45:54.236Z,52.05
2023-04-03T09:46:54.258Z,51.54
2023-04-03T09:47:54.221Z,52.34
2023-04-03T09:49:05.117Z,52.13
2023-04-03T09:49:55.176Z,51.93
2023-04-03T09:50:54.169Z,50.29
2023-04-03T09:51:54.354Z,50.18
2023-04-03T09:52:54.144Z,50.42
2023-04-03T09:53:54.124Z,51.23
2023-04-03T09:54:54.144Z,51.54
2023-04-03T09:55:54.116Z,51.23
2023-04-03T09:56:54.168Z,52.36
2023-04-03T09:57:54.103Z,53.49
2023-04-03T09:58:54.089Z,51.85
2023-04-03T09:59:54.062Z,51.42
2023-04-03T10:00:54.128Z,52.03
2023-04-03T10:01:54.046Z,51.01
2023-04-03T10:02:54.125Z,52.36
2023-04-03T10:03:54.008Z,52.47
2023-04-03T10:05:08.376Z,51.03
2023-04-03T10:05:54.994Z,51.10
2023-04-03T10:06:53.976Z,52.54
2023-04-03T10:08:01.634Z,52.13
2023-04-03T10:08:54.967Z,52.92
2023-04-03T10:09:54.017Z,53.00
2023-04-03T10:10:53.966Z,54.03
2023-04-03T10:11:53.922Z,52.29
2023-04-03T10:12:53.938Z,51.06
2023-04-03T10:13:53.915Z,49.42
2023-04-03T10:14:53.910Z,49.01
2023-04-03T10:15:53.872Z,48.40
2023-04-03T10:16:53.913Z,48.91
2023-04-03T10:17:53.917Z,48.40
2023-04-03T10:18:53.862Z,50.55
2023-04-03T10:19:53.849Z,50.04
2023-04-03T10:20:53.841Z,50.55
2023-04-03T10:21:53.807Z,50.14
2023-04-03T10:22:53.802Z,50.55
2023-04-03T10:23:53.789Z,51.26
2023-04-03T10:24:53.783Z,52.87
2023-04-03T10:25:53.764Z,52.78
2023-04-03T10:26:53.775Z,50.01
2023-04-03T10:27:53.734Z,49.89
2023-04-03T10:28:53.724Z,49.91
2023-04-03T10:29:53.750Z,51.24
2023-04-03T10:30:53.764Z,52.16
2023-04-03T10:31:53.696Z,51.14
2023-04-03T10:32:53.738Z,48.17
2023-04-03T10:33:53.695Z,48.19
2023-04-03T10:35:04.224Z,50.65
2023-04-03T10:35:54.692Z,50.73
2023-04-03T10:36:53.641Z,51.65
2023-04-03T10:37:53.670Z,50.20
2023-04-03T10:38:53.678Z,50.20
2023-04-03T10:39:53.594Z,50.91
2023-04-03T10:40:53.602Z,51.81
2023-04-03T10:41:58.066Z,50.17
2023-04-03T10:42:54.590Z,48.97
2023-04-03T10:43:53.603Z,49.17
2023-04-03T10:44:53.589Z,49.40
2023-04-03T10:45:53.608Z,51.54
2023-04-03T10:46:53.531Z,51.34
2023-04-03T10:47:53.565Z,49.71
2023-04-03T10:48:53.515Z,50.50
2023-04-03T10:49:59.401Z,51.09
2023-04-03T10:50:54.490Z,49.25
2023-04-03T10:51:53.463Z,46.06
2023-04-03T10:52:53.615Z,48.51
2023-04-03T10:53:53.446Z,50.99
2023-04-03T10:54:53.439Z,50.04
2023-04-03T10:55:53.464Z,47.90
2023-04-03T10:57:04.448Z,50.84
2023-04-03T10:57:54.446Z,50.02
2023-04-03T10:58:53.428Z,48.69
2023-04-03T10:59:53.396Z,47.47
2023-04-03T11:00:53.381Z,48.92
2023-04-03T11:01:53.422Z,48.72
2023-04-03T11:02:53.411Z,48.13
2023-04-03T11:03:53.443Z,50.37
2023-04-03T11:04:53.338Z,48.97
2023-04-03T11:05:53.310Z,50.27
2023-04-03T11:06:53.308Z,50.40
2023-04-03T11:07:53.311Z,49.25
2023-04-03T11:08:53.288Z,49.87
2023-04-03T11:09:53.284Z,50.48
2023-04-03T11:10:53.262Z,49.87
2023-04-03T11:11:53.248Z,49.66
2023-04-03T11:12:53.273Z,48.76
2023-04-03T11:13:53.240Z,49.81
2023-04-03T11:14:53.212Z,49.09
2023-04-03T11:15:53.234Z,50.93
2023-04-03T11:16:54.311Z,50.22
2023-04-03T11:17:53.241Z,51.86
2023-04-03T11:18:53.202Z,53.08
2023-04-03T11:19:53.152Z,53.98
2023-04-03T11:20:53.168Z,52.85
2023-04-03T11:21:53.126Z,50.17
2023-04-03T11:22:53.132Z,49.99
2023-04-03T11:23:53.122Z,50.07
2023-04-03T11:24:53.124Z,50.27
2023-04-03T11:25:53.076Z,49.22
2023-04-03T11:26:53.087Z,49.33
2023-04-03T11:27:53.070Z,51.48
2023-04-03T11:28:53.076Z,49.63
2023-04-03T11:29:53.056Z,50.56
2023-04-03T11:30:54.973Z,46.98
2023-04-03T11:31:53.061Z,49.10
2023-04-03T11:32:53.025Z,48.28
2023-04-03T11:33:53.023Z,48.88
2023-04-03T11:34:53.007Z,48.47
2023-04-03T11:35:53.020Z,50.51
2023-04-03T11:36:53.079Z,48.18
2023-04-03T11:37:52.968Z,47.57
2023-04-03T11:38:54.665Z,50.86
2023-04-03T11:39:52.940Z,49.43
2023-04-03T11:40:52.950Z,48.64
2023-04-03T11:42:00.222Z,49.50
2023-04-03T11:42:53.892Z,50.96
2023-04-03T11:43:52.893Z,48.65
2023-04-03T11:44:52.870Z,49.29
2023-04-03T11:45:52.854Z,53.08
2023-04-03T11:46:55.668Z,52.49
2023-04-03T11:47:53.001Z,53.61
2023-04-03T11:48:52.856Z,51.77
2023-04-03T11:49:52.815Z,52.59
2023-04-03T11:50:52.878Z,52.59
2023-04-03T11:51:52.788Z,53.90
2023-04-03T11:52:52.892Z,53.16
2023-04-03T11:53:52.782Z,52.42
2023-04-03T11:54:52.792Z,52.90
2023-04-03T11:55:52.738Z,50.12
2023-04-03T11:56:52.837Z,50.22
2023-04-03T11:57:52.737Z,49.40
2023-04-03T11:58:52.716Z,50.22
2023-04-03T11:59:52.688Z,50.30
2023-04-03T12:00:52.759Z,50.48
2023-04-03T12:01:52.780Z,49.38
2023-04-03T12:02:54.847Z,49.99
2023-04-03T12:03:52.785Z,52.22
2023-04-03T12:04:52.684Z,51.57
2023-04-03T12:05:52.637Z,50.53
2023-04-03T12:06:52.635Z,49.38
2023-04-03T12:07:52.604Z,49.59
2023-04-03T12:08:52.648Z,49.49
2023-04-03T12:09:52.593Z,49.29
2023-04-03T12:10:54.157Z,48.65
2023-04-03T12:11:52.551Z,48.06
2023-04-03T12:12:52.573Z,50.48
2023-04-03T12:13:52.727Z,48.44
2023-04-03T12:14:52.619Z,49.05
2023-04-03T12:15:52.534Z,49.05
2023-04-03T12:16:52.562Z,49.98
2023-04-03T12:17:52.908Z,50.48
2023-04-03T12:18:52.494Z,49.95
2023-04-03T12:19:52.493Z,48.83
2023-04-03T12:20:52.461Z,45.98
2023-04-03T12:21:52.460Z,45.89
2023-04-03T12:22:52.471Z,46.86
2023-04-03T12:23:52.431Z,47.90
2023-04-03T12:24:52.441Z,49.07
2023-04-03T12:25:52.402Z,49.79
2023-04-03T12:26:52.408Z,53.06
2023-04-03T12:27:52.376Z,52.24
2023-04-03T12:28:52.375Z,50.22
2023-04-03T12:29:52.394Z,51.04
2023-04-03T12:30:52.464Z,51.78
2023-04-03T12:31:52.380Z,51.34
2023-04-03T12:33:02.078Z,52.98
2023-04-03T12:33:53.770Z,52.95
2023-04-03T12:34:52.309Z,52.83
2023-04-03T12:35:52.403Z,51.91
2023-04-03T12:36:52.336Z,51.98
2023-04-03T12:37:52.306Z,52.09
2023-04-03T12:38:52.272Z,52.78
2023-04-03T12:39:52.250Z,51.32
2023-04-03T12:40:52.243Z,50.71
2023-04-03T12:41:52.347Z,47.57
2023-04-03T12:42:52.230Z,47.14
2023-04-03T12:43:52.221Z,49.38
2023-04-03T12:44:52.201Z,49.77
2023-04-03T12:45:52.285Z,48.34
2023-04-03T12:46:52.321Z,48.75
2023-04-03T12:47:52.179Z,47.94
2023-04-03T12:48:52.163Z,46.38
2023-04-03T12:49:52.943Z,48.83
2023-04-03T12:50:52.146Z,49.54
2023-04-03T12:51:52.118Z,49.54